Time;durP1;ratioP1;P1;durP2;ratioP2;P2;SDS_P1;SDS_P2;PMS_P1;PMS_P2;Temp;Humidity;BMP_temperature;BMP_pressure;BME280_temperature;BME280_humidity;BME280_pressure;Samples;Min_cycle;Max_cycle;Signal;HPM_P1;HPM_P2
2022/10/31 00:00:18;;;;;;;10.30;8.20;;;13.10;99.90;;;;;;6061667;23;20643;-74
2022/10/31 00:02:46;;;;;;;12.43;9.90;;;13.10;99.90;;;;;;6060982;23;21019;-75
2022/10/31 00:05:13;;;;;;;12.23;9.53;;;13.10;99.90;;;;;;6033384;23;20497;-75
2022/10/31 00:07:40;;;;;;;11.87;9.90;;;13.10;99.90;;;;;;6061843;23;20800;-75
2022/10/31 00:10:09;;;;;;;12.10;10.30;;;13.00;99.90;;;;;;6042702;23;20469;-75
2022/10/31 00:12:36;;;;;;;10.87;9.83;;;13.00;99.90;;;;;;6032484;23;20490;-75
2022/10/31 00:15:04;;;;;;;11.43;9.63;;;12.90;99.90;;;;;;6061480;23;20829;-74
2022/10/31 00:17:30;;;;;;;11.43;9.23;;;12.90;99.90;;;;;;6037194;23;20264;-75
2022/10/31 00:19:59;;;;;;;13.80;10.23;;;12.90;99.90;;;;;;6045336;23;20819;-75
2022/10/31 00:22:26;;;;;;;13.43;10.43;;;12.90;99.90;;;;;;6044373;23;20988;-75
2022/10/31 00:24:53;;;;;;;12.47;11.20;;;12.90;99.90;;;;;;5985962;23;20190;-75
2022/10/31 00:27:21;;;;;;;14.90;10.75;;;12.80;99.90;;;;;;6022198;23;20772;-74
2022/10/31 00:29:48;;;;;;;12.63;10.30;;;12.80;99.90;;;;;;6034675;23;20651;-75
2022/10/31 00:32:15;;;;;;;13.57;11.25;;;12.70;99.90;;;;;;6012125;23;20203;-74
2022/10/31 00:34:42;;;;;;;12.38;11.10;;;12.70;99.90;;;;;;6041793;23;20566;-75
2022/10/31 00:37:10;;;;;;;16.35;11.10;;;12.60;99.90;;;;;;6046704;23;20617;-75
2022/10/31 00:39:38;;;;;;;13.03;11.10;;;12.70;99.90;;;;;;6034475;23;20205;-75
2022/10/31 00:42:05;;;;;;;13.90;11.15;;;12.70;99.90;;;;;;6039786;23;20523;-75
2022/10/31 00:44:32;;;;;;;12.00;10.70;;;12.70;99.90;;;;;;6060979;23;20190;-75
2022/10/31 00:46:59;;;;;;;11.23;9.32;;;12.70;99.90;;;;;;6052481;23;20189;-74
2022/10/31 00:49:26;;;;;;;12.52;11.10;;;12.70;99.90;;;;;;6059906;23;20268;-75
2022/10/31 00:51:53;;;;;;;13.07;11.68;;;12.80;99.90;;;;;;6061646;23;20227;-75
2022/10/31 00:54:22;;;;;;;14.75;11.25;;;12.60;99.90;;;;;;6061407;23;20684;-75
2022/10/31 00:56:49;;;;;;;13.30;11.10;;;12.60;99.90;;;;;;6040261;23;20228;-75
2022/10/31 00:59:16;;;;;;;11.75;10.65;;;12.70;99.90;;;;;;6052180;23;20950;-75
2022/10/31 01:01:43;;;;;;;16.67;11.43;;;12.50;99.90;;;;;;6014840;23;20201;-75
2022/10/31 01:04:10;;;;;;;14.20;10.10;;;12.50;99.90;;;;;;6036082;23;20193;-75
2022/10/31 01:06:38;;;;;;;11.77;10.65;;;12.50;99.90;;;;;;6051903;23;20341;-74
2022/10/31 01:09:05;;;;;;;15.50;11.55;;;12.40;99.90;;;;;;6050448;23;20255;-74
2022/10/31 01:11:33;;;;;;;13.30;12.02;;;12.30;99.90;;;;;;6062403;23;20589;-74
2022/10/31 01:14:01;;;;;;;13.45;10.75;;;12.30;99.90;;;;;;6050705;23;20280;-74
2022/10/31 01:16:29;;;;;;;13.27;11.38;;;12.20;99.90;;;;;;6037988;23;20196;-74
2022/10/31 01:18:56;;;;;;;13.73;10.60;;;12.20;99.90;;;;;;6052429;23;20196;-75
2022/10/31 01:21:25;;;;;;;12.82;11.63;;;12.10;99.90;;;;;;6063275;23;20254;-74
2022/10/31 01:23:54;;;;;;;12.73;11.40;;;12.10;99.90;;;;;;6038556;23;20212;-74
2022/10/31 01:26:23;;;;;;;15.68;11.40;;;12.20;99.90;;;;;;6037786;23;20193;-75
2022/10/31 01:28:55;;;;;;;13.27;11.98;;;12.00;99.90;;;;;;6060868;23;20585;-75
2022/10/31 01:31:24;;;;;;;13.32;11.43;;;12.00;99.90;;;;;;6061756;23;20540;-75
2022/10/31 01:33:52;;;;;;;12.15;10.95;;;12.00;99.90;;;;;;6057481;23;20611;-75
2022/10/31 01:36:22;;;;;;;13.57;11.80;;;11.90;99.90;;;;;;6063822;23;20192;-74
2022/10/31 01:38:50;;;;;;;13.88;10.90;;;11.90;99.90;;;;;;6061452;23;20197;-74
2022/10/31 01:41:19;;;;;;;11.95;10.73;;;11.90;99.90;;;;;;6053228;23;20216;-74
2022/10/31 01:43:49;;;;;;;15.90;11.52;;;11.90;99.90;;;;;;6047171;23;20189;-75
2022/10/31 01:46:22;;;;;;;13.05;11.50;;;12.00;99.90;;;;;;6039900;23;20197;-75
2022/10/31 01:48:49;;;;;;;13.75;11.27;;;12.00;99.90;;;;;;6039595;23;20193;-74
2022/10/31 01:51:20;;;;;;;15.38;11.85;;;12.00;99.90;;;;;;6062814;23;20188;-75
2022/10/31 01:53:48;;;;;;;11.88;10.52;;;12.00;99.90;;;;;;6051076;23;20196;-75
2022/10/31 01:56:17;;;;;;;16.65;11.27;;;12.00;99.90;;;;;;6057639;23;20193;-74
2022/10/31 01:58:47;;;;;;;12.88;10.70;;;12.00;99.90;;;;;;6001986;23;20206;-74
2022/10/31 02:01:17;;;;;;;15.32;10.65;;;12.00;99.90;;;;;;6031092;23;20221;-75
2022/10/31 02:03:47;;;;;;;12.05;10.15;;;12.00;99.90;;;;;;6044793;23;20284;-73
2022/10/31 02:06:28;;;;;;;10.93;9.82;;;12.00;99.90;;;;;;6050779;23;20223;-74
2022/10/31 02:08:58;;;;;;;12.23;10.57;;;12.00;99.90;;;;;;6027173;23;20189;-74
2022/10/31 02:11:25;;;;;;;13.60;10.00;;;12.00;99.90;;;;;;6062837;23;20220;-75
2022/10/31 02:13:53;;;;;;;11.38;9.73;;;12.00;99.90;;;;;;6013142;23;20193;-74
2022/10/31 02:16:20;;;;;;;13.80;9.38;;;12.00;99.90;;;;;;6037112;23;20193;-74
2022/10/31 02:18:49;;;;;;;11.90;10.05;;;12.10;99.90;;;;;;6027469;23;20192;-74
2022/10/31 02:21:22;;;;;;;11.63;9.00;;;12.00;99.90;;;;;;6061523;23;20243;-74
2022/10/31 02:24:13;;;;;;;11.95;10.50;;;12.00;99.90;;;;;;6063170;23;20343;-74
2022/10/31 02:26:54;;;;;;;10.60;9.55;;;12.00;99.90;;;;;;6050743;23;20220;-74
2022/10/31 02:30:04;;;;;;;13.23;10.10;;;12.00;99.90;;;;;;6049094;23;20307;-74
2022/10/31 02:32:43;;;;;;;13.13;9.45;;;12.00;99.90;;;;;;6054528;23;20197;-74
2022/10/31 02:35:18;;;;;;;10.43;9.00;;;12.00;99.90;;;;;;6061985;23;20609;-75
2022/10/31 02:37:52;;;;;;;10.57;8.82;;;12.00;99.90;;;;;;6057525;23;20184;-75
2022/10/31 02:40:24;;;;;;;10.20;9.23;;;12.00;99.90;;;;;;6056445;23;20210;-74
2022/10/31 02:43:00;;;;;;;17.75;10.73;;;12.00;99.90;;;;;;6063275;23;20258;-74
2022/10/31 02:45:31;;;;;;;13.93;9.38;;;12.00;99.90;;;;;;6019775;23;20223;-74
2022/10/31 02:48:07;;;;;;;11.93;10.10;;;12.00;99.90;;;;;;6009930;23;20190;-74
2022/10/31 02:50:38;;;;;;;11.68;9.93;;;12.00;99.90;;;;;;6060919;23;20238;-74
2022/10/31 02:53:05;;;;;;;12.65;10.07;;;11.90;99.90;;;;;;6037695;23;20193;-74
2022/10/31 02:56:06;;;;;;;14.68;9.70;;;11.90;99.90;;;;;;6061921;23;20196;-74
2022/10/31 02:58:40;;;;;;;13.02;9.63;;;11.90;99.90;;;;;;6050527;23;20194;-74
2022/10/31 03:01:50;;;;;;;11.27;10.07;;;11.80;99.90;;;;;;6016995;23;20233;-74
2022/10/31 03:04:35;;;;;;;11.52;9.55;;;11.80;99.90;;;;;;6060605;23;20268;-74
2022/10/31 03:07:12;;;;;;;10.68;9.60;;;11.80;99.90;;;;;;6062398;23;20299;-74
2022/10/31 03:09:46;;;;;;;11.02;9.85;;;11.70;99.90;;;;;;6042883;23;20263;-74
2022/10/31 03:12:22;;;;;;;10.55;9.40;;;11.70;99.90;;;;;;6062025;23;20200;-74
2022/10/31 03:14:57;;;;;;;12.00;9.90;;;11.70;99.90;;;;;;6032616;23;20243;-74
2022/10/31 03:17:28;;;;;;;12.45;10.00;;;11.70;99.90;;;;;;6045015;23;20203;-74
2022/10/31 03:20:01;;;;;;;14.23;9.60;;;11.70;99.90;;;;;;6062276;23;20195;-75
2022/10/31 03:22:32;;;;;;;11.18;9.40;;;11.70;99.90;;;;;;6062750;23;20555;-74
2022/10/31 03:25:03;;;;;;;10.50;9.40;;;11.60;99.90;;;;;;6036932;23;20323;-74
2022/10/31 03:27:34;;;;;;;12.00;10.73;;;11.60;99.90;;;;;;6015269;23;20467;-75
2022/10/31 03:30:04;;;;;;;11.23;9.48;;;11.60;99.90;;;;;;6026089;23;20272;-75
2022/10/31 03:32:36;;;;;;;21.42;10.45;;;11.50;99.90;;;;;;6043542;23;20227;-74
2022/10/31 03:35:08;;;;;;;14.07;9.63;;;11.50;99.90;;;;;;6054924;23;20655;-75
2022/10/31 03:37:37;;;;;;;11.60;10.40;;;11.50;99.90;;;;;;6062711;23;20612;-74
2022/10/31 03:40:09;;;;;;;18.67;10.48;;;11.40;99.90;;;;;;6045189;23;20769;-74
2022/10/31 03:42:40;;;;;;;11.10;10.00;;;11.30;99.90;;;;;;6018127;23;20661;-74
2022/10/31 03:45:12;;;;;;;14.82;11.02;;;11.30;99.90;;;;;;6042073;23;20197;-74
2022/10/31 03:47:40;;;;;;;11.75;10.55;;;11.30;99.90;;;;;;6033840;23;20193;-75
2022/10/31 03:50:11;;;;;;;11.95;10.32;;;11.30;99.90;;;;;;6026699;23;20188;-74
2022/10/31 03:52:43;;;;;;;11.00;9.90;;;11.30;99.90;;;;;;6045743;23;20196;-74
2022/10/31 03:55:17;;;;;;;10.23;9.27;;;11.30;99.90;;;;;;6034348;23;20193;-74
2022/10/31 03:57:50;;;;;;;11.70;10.55;;;11.20;99.90;;;;;;6015387;23;20192;-74
2022/10/31 04:00:19;;;;;;;9.80;8.65;;;11.20;99.90;;;;;;6044097;23;20224;-74
2022/10/31 04:02:51;;;;;;;11.27;10.13;;;11.20;99.90;;;;;;5992293;23;20228;-74
2022/10/31 04:05:21;;;;;;;12.15;9.85;;;11.20;99.90;;;;;;6041810;23;20223;-74
2022/10/31 04:07:52;;;;;;;12.45;9.40;;;11.10;99.90;;;;;;6042530;23;20218;-74
2022/10/31 04:10:20;;;;;;;9.65;8.70;;;11.10;99.90;;;;;;6061456;23;20271;-74
2022/10/31 04:12:54;;;;;;;11.20;9.30;;;11.10;99.90;;;;;;6028179;23;20196;-74
2022/10/31 04:15:24;;;;;;;11.35;10.25;;;11.10;99.90;;;;;;6014393;23;20270;-74
2022/10/31 04:17:54;;;;;;;10.25;9.25;;;11.10;99.90;;;;;;6061296;23;20219;-74
2022/10/31 04:20:32;;;;;;;10.63;9.15;;;11.10;99.90;;;;;;6060771;23;20523;-74
2022/10/31 04:23:00;;;;;;;10.07;8.90;;;11.10;99.90;;;;;;6054426;23;20192;-74
2022/10/31 04:25:27;;;;;;;12.48;9.20;;;11.10;99.90;;;;;;6061766;23;20247;-74
2022/10/31 04:27:54;;;;;;;14.75;9.85;;;11.10;99.90;;;;;;6060959;23;20205;-74
2022/10/31 04:30:21;;;;;;;9.80;8.85;;;11.10;99.90;;;;;;6047451;23;20279;-74
2022/10/31 04:32:48;;;;;;;10.40;8.60;;;11.10;99.90;;;;;;6061136;23;20201;-74
2022/10/31 04:35:15;;;;;;;10.05;8.15;;;11.20;99.90;;;;;;6028310;23;20655;-74
2022/10/31 04:37:44;;;;;;;10.18;9.00;;;11.20;99.90;;;;;;6060731;23;20207;-74
2022/10/31 04:40:12;;;;;;;10.27;8.70;;;11.20;99.90;;;;;;6037073;23;20254;-74
2022/10/31 04:42:39;;;;;;;10.02;8.75;;;11.10;99.90;;;;;;6062414;23;20268;-74
2022/10/31 04:45:07;;;;;;;10.15;8.48;;;11.10;99.90;;;;;;6063945;23;20598;-74
2022/10/31 04:47:34;;;;;;;11.05;9.02;;;11.10;99.90;;;;;;6036655;23;20196;-74
2022/10/31 04:50:01;;;;;;;13.27;9.23;;;11.00;99.90;;;;;;6063361;23;20200;-74
2022/10/31 04:52:29;;;;;;;11.57;9.05;;;10.90;99.90;;;;;;6059254;23;20224;-74
2022/10/31 04:54:57;;;;;;;11.38;8.13;;;10.90;99.90;;;;;;6062606;23;20219;-74
2022/10/31 04:57:24;;;;;;;11.45;8.60;;;10.90;99.90;;;;;;6029648;23;20217;-74
2022/10/31 04:59:52;;;;;;;10.27;8.73;;;10.80;99.90;;;;;;6010475;23;20601;-74
2022/10/31 05:02:19;;;;;;;12.25;9.38;;;10.80;99.90;;;;;;6056672;23;20259;-74
2022/10/31 05:04:46;;;;;;;10.48;9.40;;;10.80;99.90;;;;;;6042695;23;20223;-75
2022/10/31 05:07:13;;;;;;;11.35;9.57;;;10.70;99.90;;;;;;6037881;23;20278;-74
2022/10/31 05:09:41;;;;;;;11.38;8.98;;;10.70;99.90;;;;;;6014531;23;20204;-74
2022/10/31 05:12:09;;;;;;;12.88;9.80;;;10.70;99.90;;;;;;6059661;23;20767;-74
2022/10/31 05:14:36;;;;;;;14.50;10.20;;;10.70;99.90;;;;;;6040790;23;20199;-74
2022/10/31 05:17:04;;;;;;;12.05;9.50;;;10.70;99.90;;;;;;6062268;23;20276;-74
2022/10/31 05:19:30;;;;;;;10.15;8.85;;;10.60;99.90;;;;;;6026901;23;20201;-75
2022/10/31 05:21:58;;;;;;;11.02;9.27;;;10.60;99.90;;;;;;6062308;23;20634;-74
2022/10/31 05:24:25;;;;;;;12.20;10.65;;;10.50;99.90;;;;;;6042697;23;20196;-74
2022/10/31 05:26:52;;;;;;;13.82;8.80;;;10.50;99.90;;;;;;6040921;23;20193;-74
2022/10/31 05:29:21;;;;;;;9.77;8.65;;;10.50;99.90;;;;;;6036997;23;20197;-74
2022/10/31 05:31:48;;;;;;;10.55;9.02;;;10.50;99.90;;;;;;6063480;23;20189;-74
2022/10/31 05:34:15;;;;;;;9.98;8.93;;;10.40;99.90;;;;;;6010785;23;20197;-74
2022/10/31 05:36:42;;;;;;;10.82;9.73;;;10.40;99.90;;;;;;6051286;23;20196;-74
2022/10/31 05:39:09;;;;;;;12.27;10.52;;;10.30;99.90;;;;;;6052935;23;20239;-74
2022/10/31 05:41:36;;;;;;;13.73;10.43;;;10.30;99.90;;;;;;6056676;23;20217;-74
2022/10/31 05:44:04;;;;;;;14.60;9.90;;;10.30;99.90;;;;;;6055170;23;20241;-74
2022/10/31 05:46:32;;;;;;;10.30;9.30;;;10.30;99.90;;;;;;6064418;23;20204;-74
2022/10/31 05:48:59;;;;;;;10.23;8.98;;;10.20;99.90;;;;;;6049774;23;20219;-74
2022/10/31 05:51:26;;;;;;;13.48;9.48;;;10.20;99.90;;;;;;6010911;23;20192;-74
2022/10/31 05:53:53;;;;;;;14.07;10.38;;;10.20;99.90;;;;;;6054677;23;20212;-74
2022/10/31 05:56:21;;;;;;;11.65;9.85;;;10.20;99.90;;;;;;6061644;23;20614;-74
2022/10/31 05:58:48;;;;;;;11.60;8.75;;;10.20;99.90;;;;;;6044880;23;20206;-74
2022/10/31 06:01:15;;;;;;;11.57;9.35;;;10.20;99.90;;;;;;6038746;23;20658;-74
2022/10/31 06:03:43;;;;;;;11.10;10.00;;;10.20;99.90;;;;;;6054238;23;20188;-74
2022/10/31 06:06:11;;;;;;;10.05;9.05;;;10.10;99.90;;;;;;6042385;23;20192;-74
2022/10/31 06:08:38;;;;;;;11.10;9.25;;;10.20;99.90;;;;;;6061908;23;20255;-74
2022/10/31 06:11:05;;;;;;;11.55;9.20;;;10.20;99.90;;;;;;6073452;23;20548;-74
2022/10/31 06:13:32;;;;;;;11.50;9.13;;;10.20;99.90;;;;;;6044885;23;20199;-74
2022/10/31 06:15:59;;;;;;;10.30;9.25;;;10.20;99.90;;;;;;6007939;23;20211;-74
2022/10/31 06:18:27;;;;;;;9.43;8.43;;;10.10;99.90;;;;;;6059218;23;20551;-73
2022/10/31 06:20:56;;;;;;;9.52;8.52;;;10.10;99.90;;;;;;6038668;23;20630;-74
2022/10/31 06:23:23;;;;;;;10.48;9.40;;;10.10;99.90;;;;;;5999239;23;20666;-73
2022/10/31 06:25:50;;;;;;;13.05;8.90;;;10.10;99.90;;;;;;6022902;23;20192;-74
2022/10/31 06:28:18;;;;;;;11.45;8.20;;;10.20;99.90;;;;;;6064841;23;20601;-74
2022/10/31 06:30:46;;;;;;;9.63;8.40;;;10.20;99.90;;;;;;6045581;23;20238;-73
2022/10/31 06:33:13;;;;;;;9.13;8.20;;;10.20;99.90;;;;;;6059544;23;20666;-73
2022/10/31 06:35:46;;;;;;;14.77;9.40;;;10.40;99.90;;;;;;6024777;23;20279;-73
2022/10/31 06:38:15;;;;;;;10.10;9.07;;;10.20;99.90;;;;;;6054338;23;20708;-73
2022/10/31 06:40:42;;;;;;;8.35;7.55;;;10.30;99.90;;;;;;6049458;23;20193;-74
2022/10/31 06:43:11;;;;;;;9.38;8.30;;;10.30;99.90;;;;;;6046972;23;20336;-74
2022/10/31 06:45:38;;;;;;;9.90;8.52;;;10.40;99.90;;;;;;6052673;23;20212;-74
2022/10/31 06:48:06;;;;;;;10.52;8.90;;;10.40;99.90;;;;;;6029331;23;20740;-78
2022/10/31 06:50:33;;;;;;;9.75;8.00;;;10.40;99.90;;;;;;6030308;23;20626;-77
2022/10/31 06:53:00;;;;;;;9.75;8.32;;;10.50;99.90;;;;;;6050303;23;20588;-78
2022/10/31 06:55:30;;;;;;;14.25;8.25;;;10.60;99.90;;;;;;6060547;23;20278;-78
2022/10/31 06:57:59;;;;;;;9.82;8.82;;;10.60;99.90;;;;;;6037395;23;20188;-78
2022/10/31 07:00:28;;;;;;;8.75;7.90;;;10.70;99.90;;;;;;6045737;23;20231;-79
2022/10/31 07:02:56;;;;;;;7.75;7.05;;;10.60;99.90;;;;;;6036691;23;20234;-79
2022/10/31 07:05:23;;;;;;;8.63;7.13;;;10.70;99.90;;;;;;6047870;23;20212;-79
2022/10/31 07:07:55;;;;;;;11.38;7.65;;;10.80;99.90;;;;;;6071423;23;20187;-79
2022/10/31 07:10:25;;;;;;;8.45;7.40;;;10.90;99.90;;;;;;6060005;23;20216;-79
2022/10/31 07:12:57;;;;;;;9.90;7.82;;;11.20;99.90;;;;;;6034597;23;20721;-75
2022/10/31 07:15:25;;;;;;;7.57;6.78;;;11.30;99.90;;;;;;6058825;23;20192;-75
2022/10/31 07:17:52;;;;;;;8.80;6.65;;;11.30;99.90;;;;;;6064384;23;20193;-75
2022/10/31 07:20:20;;;;;;;6.22;5.63;;;11.40;99.90;;;;;;6056455;23;20215;-74
2022/10/31 07:22:47;;;;;;;7.85;7.00;;;11.50;99.90;;;;;;6065349;23;20322;-74
2022/10/31 07:25:14;;;;;;;8.50;6.70;;;11.70;99.90;;;;;;6063490;23;20642;-75
2022/10/31 07:27:43;;;;;;;8.48;7.40;;;11.90;99.90;;;;;;6065710;23;20267;-74
2022/10/31 07:30:13;;;;;;;9.70;5.85;;;12.10;99.90;;;;;;6063791;23;20193;-74
2022/10/31 07:32:41;;;;;;;7.10;6.50;;;12.20;99.90;;;;;;6070744;23;20266;-75
2022/10/31 07:35:09;;;;;;;8.65;6.53;;;12.20;99.90;;;;;;6057337;23;20208;-74
2022/10/31 07:37:36;;;;;;;8.25;6.80;;;12.10;99.90;;;;;;6028253;23;20255;-74
2022/10/31 07:40:04;;;;;;;8.10;6.80;;;12.10;99.90;;;;;;6053534;23;20188;-74
2022/10/31 07:42:35;;;;;;;8.02;6.28;;;12.20;99.90;;;;;;6071813;23;20205;-74
2022/10/31 07:45:03;;;;;;;9.73;7.03;;;12.30;99.90;;;;;;6039917;23;20199;-75
2022/10/31 07:47:39;;;;;;;11.35;6.93;;;12.40;99.90;;;;;;6077432;23;20562;-75
2022/10/31 07:50:07;;;;;;;7.43;5.83;;;12.40;99.90;;;;;;6068891;23;20671;-75
2022/10/31 07:52:34;;;;;;;8.30;6.00;;;12.50;99.90;;;;;;6059063;23;20434;-74
2022/10/31 07:55:01;;;;;;;8.60;6.23;;;12.60;99.90;;;;;;6031195;23;20436;-74
2022/10/31 07:57:28;;;;;;;9.07;6.20;;;12.80;99.90;;;;;;6064496;23;20448;-75
2022/10/31 07:59:55;;;;;;;8.47;6.40;;;12.80;99.90;;;;;;6050289;23;20440;-74
2022/10/31 08:02:23;;;;;;;9.17;6.40;;;12.80;99.90;;;;;;6062552;23;20458;-74
2022/10/31 08:04:52;;;;;;;8.10;6.30;;;12.70;99.90;;;;;;6058203;23;20447;-74
2022/10/31 08:07:19;;;;;;;8.10;6.50;;;12.70;99.90;;;;;;6031396;23;20992;-74
2022/10/31 08:09:45;;;;;;;7.00;5.57;;;12.70;99.90;;;;;;6054055;23;20433;-74
2022/10/31 08:12:12;;;;;;;9.20;7.07;;;12.90;99.90;;;;;;6054217;23;20428;-74
2022/10/31 08:14:39;;;;;;;7.60;6.10;;;13.10;99.90;;;;;;6061024;23;20438;-74
2022/10/31 08:17:06;;;;;;;9.40;5.93;;;13.30;99.90;;;;;;6062023;23;20442;-76
2022/10/31 08:19:33;;;;;;;7.77;6.00;;;13.60;99.90;;;;;;6006216;23;20433;-76
2022/10/31 08:22:01;;;;;;;6.20;5.57;;;13.90;99.90;;;;;;6056568;23;20460;-75
2022/10/31 08:24:28;;;;;;;6.20;5.70;;;14.20;99.90;;;;;;6040839;23;20434;-74
2022/10/31 08:26:54;;;;;;;6.10;5.50;;;14.40;99.90;;;;;;6063636;23;20442;-75
2022/10/31 08:29:21;;;;;;;7.73;6.17;;;14.60;99.90;;;;;;6063091;23;20449;-75
2022/10/31 08:32:07;;;;;;;11.80;5.90;;;14.60;99.90;;;;;;6061887;23;20434;-75
2022/10/31 08:34:34;;;;;;;8.53;6.63;;;14.60;99.90;;;;;;6056724;23;20451;-75
2022/10/31 08:37:04;;;;;;;7.87;6.73;;;14.70;99.90;;;;;;6069360;23;20806;-75
2022/10/31 08:39:31;;;;;;;7.00;6.30;;;14.70;99.90;;;;;;6047996;23;20508;-75
2022/10/31 08:41:58;;;;;;;11.93;6.63;;;14.50;99.90;;;;;;6038951;23;20463;-74
2022/10/31 08:44:25;;;;;;;7.00;6.40;;;14.30;99.90;;;;;;6062080;23;20435;-75
2022/10/31 08:46:52;;;;;;;11.77;7.30;;;14.20;99.90;;;;;;6032335;23;20450;-75
2022/10/31 08:49:20;;;;;;;7.03;6.20;;;14.20;99.90;;;;;;6055845;23;20446;-75
2022/10/31 08:51:48;;;;;;;9.03;7.33;;;14.10;99.90;;;;;;6061786;23;20449;-75
2022/10/31 08:54:17;;;;;;;7.73;6.83;;;14.00;99.90;;;;;;6060830;23;20437;-73
2022/10/31 08:56:44;;;;;;;7.47;6.77;;;13.80;99.90;;;;;;6053207;23;20948;-75
2022/10/31 08:59:45;;;;;;;13.03;6.77;;;13.60;99.90;;;;;;5992275;22;20922;-75
2022/10/31 09:02:13;;;;;;;8.57;7.17;;;13.60;99.90;;;;;;5033979;28;20514;-75
2022/10/31 09:04:40;;;;;;;8.47;7.20;;;13.60;99.90;;;;;;5055517;28;20553;-75
2022/10/31 09:07:07;;;;;;;9.00;6.53;;;13.60;99.90;;;;;;5051966;28;20560;-75
2022/10/31 09:09:36;;;;;;;8.20;7.20;;;13.60;99.90;;;;;;5036615;28;20491;-75
2022/10/31 09:12:03;;;;;;;8.03;6.50;;;13.60;99.90;;;;;;5048237;28;20455;-75
2022/10/31 09:14:30;;;;;;;9.50;6.60;;;13.60;99.90;;;;;;5051914;28;20543;-75
2022/10/31 09:16:57;;;;;;;7.17;6.17;;;13.70;99.90;;;;;;5034731;28;20475;-76
2022/10/31 09:19:24;;;;;;;7.70;5.93;;;13.90;99.90;;;;;;5053722;28;20527;-76
2022/10/31 09:21:54;;;;;;;9.80;6.90;;;14.10;99.90;;;;;;5045910;28;20954;-74
2022/10/31 09:24:21;;;;;;;9.10;6.70;;;14.40;99.90;;;;;;5016559;28;20538;-73
2022/10/31 09:26:49;;;;;;;8.67;6.23;;;14.80;99.90;;;;;;5019708;28;20866;-73
2022/10/31 09:29:16;;;;;;;6.57;5.90;;;14.90;99.90;;;;;;5036644;28;20451;-73
2022/10/31 09:31:44;;;;;;;6.70;6.00;;;15.10;99.90;;;;;;5032211;28;20892;-73
2022/10/31 09:34:11;;;;;;;7.70;5.93;;;15.30;99.90;;;;;;5033310;28;20495;-73
2022/10/31 09:36:39;;;;;;;7.23;5.87;;;15.60;99.90;;;;;;5039309;28;21042;-73
2022/10/31 09:39:07;;;;;;;7.50;6.30;;;15.60;99.90;;;;;;5028033;28;20447;-73
2022/10/31 09:41:51;;;;;;;7.23;6.30;;;15.60;99.90;;;;;;5033387;28;20458;-73
2022/10/31 09:44:27;;;;;;;7.70;6.40;;;15.40;99.90;;;;;;5016994;28;20471;-73
2022/10/31 09:47:02;;;;;;;6.30;5.70;;;15.50;99.90;;;;;;5042896;28;20586;-73
2022/10/31 09:49:41;;;;;;;7.73;5.70;;;15.80;99.90;;;;;;5017694;28;20497;-73
2022/10/31 09:52:15;;;;;;;6.87;6.17;;;16.00;99.90;;;;;;5030063;28;20452;-73
2022/10/31 09:54:47;;;;;;;7.27;6.20;;;16.20;99.90;;;;;;5052429;28;20427;-73
2022/10/31 09:57:16;;;;;;;9.73;6.40;;;16.10;99.90;;;;;;5036835;28;20478;-73
2022/10/31 09:59:47;;;;;;;9.60;6.00;;;16.00;99.90;;;;;;5052947;28;20443;-73
2022/10/31 10:02:18;;;;;;;7.27;5.93;;;16.00;99.90;;;;;;5047165;28;20459;-73
2022/10/31 10:04:54;;;;;;;7.80;5.97;;;16.10;99.90;;;;;;5052785;28;20954;-73
2022/10/31 10:07:30;;;;;;;6.70;6.03;;;16.10;99.90;;;;;;5052608;28;20951;-73
2022/10/31 10:09:58;;;;;;;6.57;5.97;;;16.10;99.90;;;;;;5040704;28;20448;-73
2022/10/31 10:12:46;;;;;;;6.97;6.27;;;16.20;99.90;;;;;;5026518;28;20440;-73
2022/10/31 10:15:36;;;;;;;7.60;6.30;;;16.30;99.90;;;;;;5048019;28;20959;-73
2022/10/31 10:18:12;;;;;;;9.40;5.70;;;16.50;99.90;;;;;;5052012;28;20487;-74
2022/10/31 10:20:45;;;;;;;7.67;6.50;;;16.50;99.90;;;;;;5052584;28;20536;-74
2022/10/31 10:23:29;;;;;;;6.53;5.67;;;16.70;99.90;;;;;;5032195;28;20998;-71
2022/10/31 10:26:04;;;;;;;8.73;6.03;;;16.60;99.90;;;;;;5052872;28;20465;-78
2022/10/31 10:28:38;;;;;;;8.17;6.10;;;16.70;99.90;;;;;;5033320;28;20931;-78
2022/10/31 10:31:09;;;;;;;6.23;5.67;;;16.80;99.90;;;;;;5046440;28;20456;-78
2022/10/31 10:33:41;;;;;;;7.20;6.50;;;16.80;99.90;;;;;;5052994;28;20964;-79
2022/10/31 10:36:15;;;;;;;7.60;5.80;;;16.90;99.90;;;;;;5051549;28;20982;-80
2022/10/31 10:38:51;;;;;;;6.80;5.47;;;16.90;99.90;;;;;;5052295;28;20458;-79
2022/10/31 10:41:21;;;;;;;7.70;5.50;;;16.90;99.90;;;;;;5037474;28;20458;-78
2022/10/31 10:43:50;;;;;;;7.63;5.17;;;17.00;99.90;;;;;;5025216;28;20479;-78
2022/10/31 10:49:20;;;;;;;8.20;6.20;;;17.10;99.90;;;;;;5047376;28;20876;-78
2022/10/31 10:51:51;;;;;;;8.70;6.23;;;17.10;99.90;;;;;;5022760;28;20456;-78
2022/10/31 10:54:40;;;;;;;9.40;6.83;;;17.10;99.90;;;;;;5018544;28;20501;-78
2022/10/31 10:57:19;;;;;;;6.40;5.70;;;17.10;99.90;;;;;;5044445;28;20487;-78
2022/10/31 10:59:47;;;;;;;7.43;6.33;;;17.20;99.90;;;;;;5046223;28;20546;-78
2022/10/31 11:02:20;;;;;;;7.60;6.83;;;17.30;99.90;;;;;;5049072;28;20966;-73
2022/10/31 11:04:51;;;;;;;7.13;6.00;;;17.30;99.90;;;;;;5028084;28;20538;-73
2022/10/31 11:07:19;;;;;;;6.67;5.83;;;17.40;99.90;;;;;;5022325;28;20466;-73
2022/10/31 11:09:46;;;;;;;11.13;6.77;;;17.40;99.90;;;;;;5051207;28;20534;-73
2022/10/31 11:12:21;;;;;;;8.40;6.30;;;17.40;99.90;;;;;;5049090;28;20551;-74
2022/10/31 11:14:51;;;;;;;6.43;5.50;;;17.40;99.90;;;;;;5044170;28;20448;-74
2022/10/31 11:17:29;;;;;;;8.33;5.60;;;17.30;99.90;;;;;;5037441;28;20478;-74
2022/10/31 11:20:05;;;;;;;8.40;6.73;;;17.30;99.90;;;;;;5041906;28;20463;-73
2022/10/31 11:22:32;;;;;;;7.30;6.43;;;17.30;99.90;;;;;;5041374;28;20432;-74
2022/10/31 11:24:59;;;;;;;6.60;6.00;;;17.20;99.90;;;;;;5046454;28;20857;-74
2022/10/31 11:27:27;;;;;;;7.17;6.10;;;17.20;99.90;;;;;;5032503;28;20478;-74
2022/10/31 11:30:05;;;;;;;6.67;6.07;;;17.10;99.90;;;;;;5052334;28;20490;-73
2022/10/31 11:32:34;;;;;;;8.60;6.23;;;17.30;99.90;;;;;;5044160;28;20450;-74
2022/10/31 11:35:10;;;;;;;10.60;6.13;;;17.50;99.90;;;;;;5037008;28;20456;-74
2022/10/31 11:37:43;;;;;;;6.80;5.90;;;17.60;99.90;;;;;;5015443;28;20487;-74
2022/10/31 11:40:18;;;;;;;7.43;6.20;;;17.70;99.90;;;;;;5041846;28;20857;-74
2022/10/31 11:42:46;;;;;;;8.47;7.17;;;17.80;99.90;;;;;;5050783;28;20458;-74
2022/10/31 11:45:17;;;;;;;7.20;6.43;;;17.90;99.90;;;;;;5041502;28;20473;-72
2022/10/31 11:47:50;;;;;;;8.87;6.90;;;18.00;99.90;;;;;;5050130;28;20479;-73
2022/10/31 11:50:22;;;;;;;7.60;6.17;;;18.10;99.90;;;;;;5048767;28;20517;-73
2022/10/31 11:52:51;;;;;;;6.83;6.00;;;18.20;99.90;;;;;;5038243;28;20486;-73
2022/10/31 11:55:32;;;;;;;7.90;7.17;;;18.20;99.90;;;;;;5033731;28;20478;-72
2022/10/31 11:58:01;;;;;;;8.30;6.30;;;18.40;99.90;;;;;;5032903;28;20447;-73
2022/10/31 12:00:30;;;;;;;8.30;6.20;;;18.50;99.90;;;;;;5048967;28;20566;-73
2022/10/31 12:03:30;;;;;;;6.53;5.43;;;18.60;99.90;;;;;;5041466;28;20507;-75
2022/10/31 12:06:03;;;;;;;8.17;6.43;;;18.80;99.90;;;;;;5029588;28;20483;-75
2022/10/31 12:08:33;;;;;;;7.50;6.50;;;18.80;99.90;;;;;;5045421;28;20456;-74
2022/10/31 12:11:09;;;;;;;7.87;6.10;;;18.90;99.90;;;;;;5051159;28;20459;-75
2022/10/31 12:13:40;;;;;;;10.87;6.03;;;18.90;99.90;;;;;;5035429;28;20497;-75
2022/10/31 12:16:14;;;;;;;7.90;5.93;;;18.80;99.90;;;;;;5047520;28;20578;-75
2022/10/31 12:19:00;;;;;;;7.33;6.07;;;18.80;99.90;;;;;;5026025;28;20561;-74
2022/10/31 12:21:44;;;;;;;8.40;6.40;;;18.80;99.90;;;;;;5036230;28;20460;-75
2022/10/31 12:24:21;;;;;;;7.83;5.90;;;18.80;99.90;;;;;;5044347;28;20486;-75
2022/10/31 12:26:58;;;;;;;7.00;6.30;;;18.80;99.90;;;;;;5040767;28;20544;-75
2022/10/31 12:29:37;;;;;;;8.20;6.83;;;18.90;99.90;;;;;;5052294;28;20504;-75
2022/10/31 12:32:22;;;;;;;6.63;5.60;;;18.90;99.90;;;;;;5040899;28;20758;-75
2022/10/31 12:35:21;;;;;;;8.00;6.03;;;19.00;99.90;;;;;;5033201;28;20526;-75
2022/10/31 12:38:02;;;;;;;7.77;5.80;;;19.20;99.90;;;;;;5036275;28;20491;-75
2022/10/31 12:40:42;;;;;;;7.87;6.03;;;19.40;99.90;;;;;;5047462;28;21003;-75
2022/10/31 12:43:23;;;;;;;6.60;6.00;;;19.50;99.90;;;;;;5036574;28;20829;-75
2022/10/31 12:45:55;;;;;;;9.43;6.47;;;19.40;99.90;;;;;;5049548;28;20530;-74
2022/10/31 12:48:49;;;;;;;9.23;6.73;;;19.40;99.90;;;;;;5018022;28;20446;-75
2022/10/31 12:51:27;;;;;;;8.63;6.30;;;19.20;99.90;;;;;;5013874;28;20513;-74
2022/10/31 12:54:14;;;;;;;7.40;6.60;;;19.00;99.90;;;;;;5042979;28;21001;-75
2022/10/31 12:56:53;;;;;;;8.27;6.40;;;18.90;99.90;;;;;;5051860;28;20537;-75
2022/10/31 12:59:28;;;;;;;7.50;6.70;;;18.60;99.90;;;;;;5024927;28;20929;-75